ナイロビ の空港の天気 - METARとTAF

ジョモ・ケニヤッタ国際空港 ( HKJK / NBO ) - ケニア ナイロビ
飛行場実況気象(Metar)
観測時間10/15 13:00 EAT (10/15 10:00 UTC)
風向・風速北東 2m/s
視程10km以上
天気現象
全天の8割程度の雲 雲底高度 820m
気温27℃
湿度45%
気圧1021hPa
METARHKJK 151000Z 04004KT 9999 BKN027 27/14 Q1021
過去の天気等 Google飛行場航空写真 Wunderground天気予報

過去48時間のMETAR

飛行場予報(TAF)
発表時間: 10/16 02:00 EAT (10/15 23:00 UTC)
予報対象時間: 16日3時 EAT ~ 17日9時 EAT
風向・風速北東 3m/s
視程10km以上
少しの雲 雲底高度 550m
16日3時 EAT ~ 16日9時 EAT に一時的に
全天の4割程度の雲 雲底高度 240m
全天の8割程度の雲 雲底高度 520m
16日11時 EAT ~ 16日14時 EAT に徐々に
風向・風速東 5m/s
全天の8割程度の雲 雲底高度 820m
16日15時 EAT ~ 16日21時 EAT に一時的に
天気現象弱いしゅう雨
少しの積乱雲 雲底高度 670m
全天の4割程度の雲 雲底高度 700m
16日23時 EAT ~ 17日2時 EAT に徐々に
風向・風速北東 3m/s
全天の8割程度の雲 雲底高度 550m
17日3時 EAT ~ 17日9時 EAT に一時的に
全天の4割程度の雲 雲底高度 240m
全天の8割程度の雲 雲底高度 520m
TAF HKJK 152300Z 1600/1706 04005KT 9999 FEW018
TEMPO 1600/1606 SCT008 BKN017
BECMG 1608/1611 09010KT BKN027
TEMPO 1612/1618 -SHRA FEW022CB SCT023
BECMG 1620/1623 04005KT BKN018
TEMPO 1700/1706 SCT008 BKN017